Terminal Aerodrome Forecast
Issued by NWS

Home | Current Version | Previous Version | Text Only | Print | Product List | Glossary On
Versions: 1 2 3 4 5 6 7 8 9 10 11 12 13 14 15 16 17 18
000
FTUS46 KLOX 032007 AAA
TAFWJF
TAF AMD
KWJF 032007Z 0320/0418 07015KT P6SM SKC
     FM032300 23010KT P6SM SCT200
     FM040500 21007KT P6SM SCT200=

USA.gov is the U.S. government's official web portal to all federal, state and local government web resources and services.